createdAt,value
2019-01-02T00:00:47.642Z,97.30
2019-01-02T00:03:19.951Z,97.50
2019-01-02T00:05:52.544Z,97.20
2019-01-02T00:08:25.147Z,97.00
2019-01-02T00:10:57.573Z,97.30
2019-01-02T00:13:29.890Z,96.90
2019-01-02T00:16:02.394Z,97.10
2019-01-02T00:18:34.979Z,97.20
2019-01-02T00:21:07.301Z,97.20
2019-01-02T00:23:39.826Z,97.30
2019-01-02T00:26:12.111Z,97.40
2019-01-02T00:28:44.412Z,97.30
2019-01-02T00:31:16.795Z,97.00
2019-01-02T00:33:49.004Z,97.10
2019-01-02T00:36:21.505Z,96.80
2019-01-02T00:38:53.721Z,96.50
2019-01-02T00:41:25.938Z,96.40
2019-01-02T00:43:58.245Z,96.40
2019-01-02T00:46:30.450Z,96.20
2019-01-02T00:49:03.025Z,95.50
2019-01-02T00:51:35.249Z,95.40
2019-01-02T00:54:07.924Z,96.00
2019-01-02T00:56:40.241Z,96.10
2019-01-02T00:59:12.916Z,95.30
2019-01-02T01:01:45.334Z,95.40
2019-01-02T01:04:17.716Z,95.80
2019-01-02T01:06:50.034Z,95.40
2019-01-02T01:09:22.719Z,94.80
2019-01-02T01:11:55.144Z,95.00
2019-01-02T01:14:27.730Z,95.30
2019-01-02T01:17:00.035Z,94.70
2019-01-02T01:19:32.245Z,94.20
2019-01-02T01:22:04.563Z,93.60
2019-01-02T01:24:36.766Z,93.70
2019-01-02T01:27:09.247Z,94.10
2019-01-02T01:29:41.456Z,94.60
2019-01-02T01:32:13.670Z,94.50
2019-01-02T01:34:46.154Z,95.10
2019-01-02T01:37:18.583Z,95.40
2019-01-02T01:39:50.890Z,95.40
2019-01-02T01:42:23.485Z,95.60
2019-01-02T01:44:55.697Z,95.70
2019-01-02T01:47:28.113Z,95.70
2019-01-02T01:50:00.636Z,95.20
2019-01-02T01:52:32.841Z,95.40
2019-01-02T01:55:05.538Z,95.50
2019-01-02T01:57:37.756Z,95.20
2019-01-02T02:00:14.847Z,95.40
2019-01-02T02:02:47.062Z,95.10
2019-01-02T02:05:19.648Z,95.00
2019-01-02T02:07:51.969Z,95.10
2019-01-02T02:10:24.371Z,95.10
2019-01-02T02:12:56.579Z,95.20
2019-01-02T02:15:28.988Z,94.90
2019-01-02T02:18:01.780Z,94.20
2019-01-02T02:20:33.987Z,94.50
2019-01-02T02:23:06.406Z,94.60
2019-01-02T02:25:39.095Z,94.50
2019-01-02T02:28:11.416Z,94.40
2019-01-02T02:30:43.627Z,94.00
2019-01-02T02:33:16.124Z,94.10
2019-01-02T02:35:48.514Z,94.20
2019-01-02T02:38:21.114Z,94.10
2019-01-02T02:40:53.796Z,94.20
2019-01-02T02:43:26.317Z,94.30
2019-01-02T02:45:58.529Z,94.40
2019-01-02T02:48:31.217Z,94.50
2019-01-02T02:51:03.704Z,93.80
2019-01-02T02:53:36.436Z,94.10
2019-01-02T02:56:09.017Z,94.30
2019-01-02T02:58:41.695Z,94.10
2019-01-02T03:01:14.180Z,94.00
2019-01-02T03:03:46.879Z,93.90
2019-01-02T03:06:19.459Z,93.40
2019-01-02T03:08:52.244Z,93.50
2019-01-02T03:11:24.454Z,93.50
2019-01-02T03:13:56.948Z,93.30
2019-01-02T03:16:29.528Z,93.60
2019-01-02T03:19:02.112Z,93.50
2019-01-02T03:21:34.797Z,93.30
2019-01-02T03:24:07.682Z,93.20
2019-01-02T03:26:39.997Z,93.30
2019-01-02T03:29:12.220Z,92.30
2019-01-02T03:31:44.714Z,92.90
2019-01-02T03:34:17.302Z,92.90
2019-01-02T03:36:49.565Z,92.70
2019-01-02T03:39:21.804Z,92.90
2019-01-02T03:41:54.121Z,92.90
2019-01-02T03:44:26.332Z,93.20
2019-01-02T03:46:58.642Z,92.30
2019-01-02T03:49:30.847Z,92.40
2019-01-02T03:52:03.214Z,93.00
2019-01-02T03:54:35.580Z,92.80
2019-01-02T03:57:07.947Z,92.80
2019-01-02T03:59:40.369Z,92.70
2019-01-02T04:02:12.848Z,91.70
2019-01-02T04:04:45.269Z,91.80
2019-01-02T04:07:17.662Z,91.90
2019-01-02T04:09:49.875Z,91.60
2019-01-02T04:12:22.180Z,91.90
2019-01-02T04:14:54.501Z,91.90
2019-01-02T04:17:26.815Z,91.50
2019-01-02T04:19:59.046Z,91.40
2019-01-02T04:22:31.254Z,91.70
2019-01-02T04:25:03.467Z,92.10
2019-01-02T04:27:35.661Z,92.00
2019-01-02T04:30:10.943Z,91.70
2019-01-02T04:32:43.219Z,91.70
2019-01-02T04:35:15.436Z,91.60
2019-01-02T04:37:47.744Z,91.40
2019-01-02T04:40:20.058Z,91.50
2019-01-02T04:42:52.267Z,91.70
2019-01-02T04:45:24.576Z,91.80
2019-01-02T04:47:56.788Z,92.00
2019-01-02T04:50:29.191Z,91.80
2019-01-02T04:53:01.402Z,91.80
2019-01-02T04:55:33.651Z,92.20
2019-01-02T04:58:06.158Z,92.20
2019-01-02T05:00:38.468Z,92.00
2019-01-02T05:03:10.779Z,91.90
2019-01-02T05:05:43.000Z,92.00
2019-01-02T05:08:15.310Z,91.90
2019-01-02T05:10:47.630Z,92.00
2019-01-02T05:13:19.832Z,92.10
2019-01-02T05:15:52.149Z,92.30
2019-01-02T05:18:24.362Z,92.30
2019-01-02T05:20:56.680Z,92.00
2019-01-02T05:23:28.887Z,91.90
2019-01-02T05:26:01.097Z,91.70
2019-01-02T05:28:33.306Z,91.70
2019-01-02T05:31:05.636Z,91.60
2019-01-02T05:33:37.835Z,91.70
2019-01-02T05:36:10.043Z,91.80
2019-01-02T05:38:42.265Z,91.80
2019-01-02T05:41:14.583Z,91.70
2019-01-02T05:43:46.790Z,92.00
2019-01-02T05:46:19.008Z,92.00
2019-01-02T05:48:51.321Z,92.20
2019-01-02T05:51:23.641Z,92.50
2019-01-02T05:53:56.197Z,93.20
2019-01-02T05:56:28.652Z,93.40
2019-01-02T05:59:01.095Z,94.00
2019-01-02T06:01:33.656Z,94.20
2019-01-02T06:04:05.974Z,94.50
2019-01-02T06:06:38.182Z,94.70
2019-01-02T06:09:10.986Z,94.90
2019-01-02T06:11:43.199Z,94.80
2019-01-02T06:14:15.507Z,94.80
2019-01-02T06:16:47.922Z,94.70
2019-01-02T06:19:20.136Z,94.70
2019-01-02T06:21:52.348Z,94.70
2019-01-02T06:24:24.665Z,94.50
2019-01-02T06:26:56.874Z,93.90
2019-01-02T06:29:29.179Z,93.90
2019-01-02T06:32:01.385Z,93.60
2019-01-02T06:34:33.700Z,93.50
2019-01-02T06:37:06.227Z,93.40
2019-01-02T06:39:38.546Z,93.30
2019-01-02T06:42:10.759Z,92.70
2019-01-02T06:44:43.169Z,93.00
2019-01-02T06:47:15.476Z,93.00
2019-01-02T06:49:47.682Z,93.00
2019-01-02T06:52:19.894Z,92.50
2019-01-02T06:54:52.116Z,92.50
2019-01-02T06:57:24.420Z,92.80
2019-01-02T06:59:56.737Z,92.70
2019-01-02T07:02:29.203Z,92.50
2019-01-02T07:05:01.511Z,92.60
2019-01-02T07:07:33.723Z,92.60
2019-01-02T07:10:06.357Z,92.80
2019-01-02T07:12:38.578Z,92.50
2019-01-02T07:15:11.199Z,92.40
2019-01-02T07:17:43.420Z,92.60
2019-01-02T07:20:15.768Z,92.30
2019-01-02T07:22:48.194Z,92.50
2019-01-02T07:25:20.393Z,92.60
2019-01-02T07:27:52.838Z,92.50
2019-01-02T07:30:26.848Z,92.30
2019-01-02T07:32:59.325Z,92.20
2019-01-02T07:36:11.418Z,91.90
2019-01-02T07:39:22.110Z,92.10
2019-01-02T07:42:53.856Z,92.20
2019-01-02T07:46:21.958Z,92.10
2019-01-02T07:49:55.427Z,92.20
2019-01-02T07:53:50.967Z,92.20
2019-01-02T07:57:42.792Z,92.40
2019-01-02T08:01:12.033Z,92.10
2019-01-02T08:04:40.551Z,92.30
2019-01-02T08:08:03.370Z,92.50
2019-01-02T08:11:36.794Z,92.30
2019-01-02T08:15:19.249Z,92.20
2019-01-02T08:18:28.833Z,91.80
2019-01-02T08:22:22.597Z,91.90
2019-01-02T08:25:53.556Z,91.80
2019-01-02T08:29:14.004Z,92.10
2019-01-02T08:33:03.558Z,91.60
2019-01-02T08:36:18.655Z,91.90
2019-01-02T08:39:43.205Z,91.70
2019-01-02T08:43:09.699Z,91.90
2019-01-02T08:46:34.234Z,91.30
2019-01-02T08:50:41.806Z,91.60
2019-01-02T08:54:31.596Z,91.00
2019-01-02T08:58:14.461Z,89.20
2019-01-02T09:01:58.184Z,80.70
2019-01-02T09:05:35.728Z,74.20
2019-01-02T09:09:23.967Z,72.20
2019-01-02T09:12:44.729Z,73.00
2019-01-02T09:15:40.996Z,74.00
2019-01-02T09:19:21.792Z,75.10
2019-01-02T09:22:38.555Z,76.80
2019-01-02T09:26:14.222Z,77.90
2019-01-02T09:29:50.641Z,79.40
2019-01-02T09:33:11.670Z,79.30
2019-01-02T09:37:00.622Z,78.60
2019-01-02T09:40:26.389Z,78.30
2019-01-02T09:43:55.404Z,77.90
2019-01-02T09:47:39.754Z,79.20
2019-01-02T09:51:05.259Z,79.30
2019-01-02T09:54:34.415Z,79.20
2019-01-02T09:58:27.540Z,79.70
2019-01-02T10:02:07.835Z,80.30
2019-01-02T10:05:48.099Z,79.80
2019-01-02T10:08:43.538Z,79.80
2019-01-02T10:12:11.737Z,79.50
2019-01-02T10:16:07.045Z,79.60
2019-01-02T10:19:21.400Z,77.90
2019-01-02T10:22:29.105Z,77.40
2019-01-02T10:26:11.693Z,78.70
2019-01-02T10:29:20.185Z,77.40
2019-01-02T10:32:49.609Z,75.90
2019-01-02T10:36:16.583Z,77.90
2019-01-02T10:39:43.242Z,78.20
2019-01-02T10:43:13.974Z,79.20
2019-01-02T10:47:01.050Z,80.10
2019-01-02T10:50:31.568Z,81.50
2019-01-02T10:53:56.480Z,82.40
2019-01-02T10:57:10.873Z,82.90
2019-01-02T11:00:23.945Z,81.30
2019-01-02T11:03:47.167Z,81.10
2019-01-02T11:07:09.490Z,81.40
2019-01-02T11:10:21.818Z,82.90
2019-01-02T11:13:49.631Z,84.50
2019-01-02T11:17:09.914Z,87.30
2019-01-02T11:20:34.754Z,88.20
2019-01-02T11:24:07.762Z,89.00
2019-01-02T11:27:45.586Z,89.90
2019-01-02T11:31:27.051Z,90.80
2019-01-02T11:35:08.923Z,91.20
2019-01-02T11:38:22.959Z,92.10
2019-01-02T11:41:27.961Z,91.50
2019-01-02T11:45:08.779Z,90.50
2019-01-02T11:47:41.083Z,87.90
2019-01-02T11:50:15.974Z,86.70
2019-01-02T11:52:48.184Z,86.40
2019-01-02T11:55:20.540Z,86.70
2019-01-02T11:57:52.855Z,86.80
2019-01-02T12:00:25.175Z,86.10
2019-01-02T12:02:57.488Z,84.20
2019-01-02T12:05:29.985Z,85.30
2019-01-02T12:08:02.204Z,85.70
2019-01-02T12:10:34.517Z,86.80
2019-01-02T12:13:07.121Z,86.90
2019-01-02T12:15:39.718Z,88.20
2019-01-02T12:18:11.920Z,85.80
2019-01-02T12:20:44.238Z,85.60
2019-01-02T12:23:16.546Z,81.10
2019-01-02T12:25:48.756Z,83.70
2019-01-02T12:28:20.964Z,85.80
2019-01-02T12:30:53.176Z,85.70
2019-01-02T12:33:25.382Z,87.00
2019-01-02T12:35:57.601Z,89.20
2019-01-02T12:38:29.811Z,90.10
2019-01-02T12:41:02.133Z,90.40
2019-01-02T12:43:34.444Z,90.90
2019-01-02T12:46:06.938Z,90.80
2019-01-02T12:48:39.142Z,90.80
2019-01-02T12:51:11.357Z,90.90
2019-01-02T12:53:43.906Z,91.20
2019-01-02T12:56:16.415Z,87.10
2019-01-02T12:58:48.737Z,75.50
2019-01-02T13:01:53.830Z,67.50
2019-01-02T13:05:09.978Z,64.30
2019-01-02T13:08:52.285Z,64.10
2019-01-02T13:12:14.350Z,61.20
2019-01-02T13:15:32.836Z,65.50
2019-01-02T13:19:25.198Z,69.60
2019-01-02T13:23:00.502Z,69.50
2019-01-02T13:26:08.551Z,68.80
2019-01-02T13:29:34.570Z,71.70
2019-01-02T13:33:12.073Z,73.60
2019-01-02T13:36:16.719Z,75.00
2019-01-02T13:39:01.781Z,76.10
2019-01-02T13:42:42.238Z,78.50
2019-01-02T13:46:01.133Z,82.10
2019-01-02T13:49:40.957Z,79.50
2019-01-02T13:52:13.217Z,77.50
2019-01-02T13:54:45.387Z,77.00
2019-01-02T13:57:17.640Z,75.20
2019-01-02T13:59:49.794Z,75.50
2019-01-02T14:02:22.004Z,74.40
2019-01-02T14:04:54.395Z,74.20
2019-01-02T14:07:26.625Z,73.90
2019-01-02T14:09:58.917Z,73.40
2019-01-02T14:12:31.122Z,73.10
2019-01-02T14:15:03.436Z,72.80
2019-01-02T14:17:35.757Z,73.50
2019-01-02T14:20:08.477Z,74.30
2019-01-02T14:22:40.715Z,73.90
2019-01-02T14:25:13.127Z,74.40
2019-01-02T14:27:45.448Z,74.90
2019-01-02T14:30:17.853Z,75.30
2019-01-02T14:32:50.062Z,74.30
2019-01-02T14:35:22.645Z,74.40
2019-01-02T14:37:55.079Z,74.10
2019-01-02T14:40:27.285Z,74.80
2019-01-02T14:42:59.605Z,76.80
2019-01-02T14:45:31.812Z,78.20
2019-01-02T14:48:04.028Z,79.20
2019-01-02T14:50:36.233Z,79.30
2019-01-02T14:53:08.447Z,79.80
2019-01-02T14:55:40.784Z,79.70
2019-01-02T14:58:13.240Z,78.80
2019-01-02T15:00:45.526Z,79.10
2019-01-02T15:03:17.740Z,77.90
2019-01-02T15:05:49.953Z,77.30
2019-01-02T15:08:22.261Z,77.60
2019-01-02T15:10:54.479Z,78.30
2019-01-02T15:13:26.684Z,78.70
2019-01-02T15:15:58.898Z,78.30
2019-01-02T15:18:31.215Z,76.70
2019-01-02T15:21:03.534Z,76.40
2019-01-02T15:23:35.754Z,77.30
2019-01-02T15:26:08.065Z,76.50
2019-01-02T15:28:40.286Z,75.50
2019-01-02T15:31:12.522Z,73.00
2019-01-02T15:33:44.793Z,72.20
2019-01-02T15:36:17.011Z,70.70
2019-01-02T15:38:49.230Z,70.70
2019-01-02T15:41:21.534Z,70.40
2019-01-02T15:43:53.750Z,70.90
2019-01-02T15:46:26.051Z,69.90
2019-01-02T15:48:58.263Z,69.40
2019-01-02T15:51:30.422Z,69.00
2019-01-02T15:54:02.725Z,69.40
2019-01-02T15:56:35.114Z,68.80
2019-01-02T15:59:07.426Z,69.10
2019-01-02T16:01:39.638Z,68.60
2019-01-02T16:04:11.866Z,68.60
2019-01-02T16:06:44.081Z,67.20
2019-01-02T16:09:16.395Z,66.20
2019-01-02T16:11:48.718Z,66.10
2019-01-02T16:14:21.024Z,65.50
2019-01-02T16:16:53.245Z,63.40
2019-01-02T16:19:25.461Z,63.80
2019-01-02T16:21:57.810Z,63.50
2019-01-02T16:24:30.063Z,63.30
2019-01-02T16:27:02.364Z,62.60
2019-01-02T16:29:34.682Z,64.90
2019-01-02T16:32:07.094Z,64.70
2019-01-02T16:34:39.310Z,63.80
2019-01-02T16:37:11.519Z,64.60
2019-01-02T16:39:43.826Z,64.50
2019-01-02T16:42:16.131Z,64.40
2019-01-02T16:44:48.446Z,64.80
2019-01-02T16:47:20.853Z,66.30
2019-01-02T16:49:53.075Z,68.20
2019-01-02T16:52:25.380Z,67.30
2019-01-02T16:54:57.700Z,66.60
2019-01-02T16:57:30.009Z,66.60
2019-01-02T17:00:02.332Z,67.00
2019-01-02T17:02:34.686Z,67.00
2019-01-02T17:05:07.408Z,66.90
2019-01-02T17:07:39.625Z,66.90
2019-01-02T17:10:13.412Z,66.70
2019-01-02T17:12:45.627Z,66.50
2019-01-02T17:15:17.937Z,65.00
2019-01-02T17:17:50.305Z,65.90
2019-01-02T17:20:22.549Z,64.20
2019-01-02T17:22:54.754Z,64.80
2019-01-02T17:25:27.023Z,64.80
2019-01-02T17:27:59.238Z,64.20
2019-01-02T17:30:31.452Z,63.70
2019-01-02T17:33:03.662Z,64.30
2019-01-02T17:35:35.880Z,62.90
2019-01-02T17:38:08.197Z,63.80
2019-01-02T17:40:40.604Z,63.80
2019-01-02T17:43:12.801Z,64.60
2019-01-02T17:45:45.014Z,64.50
2019-01-02T17:48:17.222Z,64.60
2019-01-02T17:50:49.645Z,64.40
2019-01-02T17:53:21.984Z,64.20
2019-01-02T17:55:54.401Z,64.20
2019-01-02T17:58:26.619Z,63.30
2019-01-02T18:00:58.984Z,63.60
2019-01-02T18:03:31.288Z,62.50
2019-01-02T18:06:03.618Z,63.30
2019-01-02T18:08:35.827Z,62.70
2019-01-02T18:11:08.051Z,62.90
2019-01-02T18:13:40.273Z,62.50
2019-01-02T18:16:12.696Z,62.00
2019-01-02T18:18:45.171Z,61.90
2019-01-02T18:21:17.400Z,62.40
2019-01-02T18:23:49.623Z,62.60
2019-01-02T18:26:21.884Z,61.70
2019-01-02T18:28:54.094Z,61.70
2019-01-02T18:31:26.320Z,61.90
2019-01-02T18:33:58.537Z,62.70
2019-01-02T18:36:30.850Z,62.80
2019-01-02T18:39:03.760Z,63.30
2019-01-02T18:41:35.974Z,63.00
2019-01-02T18:44:08.291Z,64.20
2019-01-02T18:46:40.607Z,64.20
2019-01-02T18:49:12.916Z,64.00
2019-01-02T18:51:45.127Z,64.10
2019-01-02T18:54:17.342Z,64.10
2019-01-02T18:56:50.577Z,64.50
2019-01-02T18:59:22.797Z,64.80
2019-01-02T19:01:55.016Z,63.20
2019-01-02T19:04:27.232Z,64.20
2019-01-02T19:06:59.459Z,63.90
2019-01-02T19:09:31.674Z,64.00
2019-01-02T19:12:03.895Z,63.90
2019-01-02T19:14:36.108Z,63.70
2019-01-02T19:17:08.325Z,63.10
2019-01-02T19:19:40.537Z,63.10
2019-01-02T19:22:12.758Z,63.90
2019-01-02T19:24:44.968Z,64.00
2019-01-02T19:27:17.179Z,64.00
2019-01-02T19:29:49.387Z,63.80
2019-01-02T19:32:21.698Z,63.80
2019-01-02T19:34:54.090Z,63.50
2019-01-02T19:37:26.400Z,62.50
2019-01-02T19:39:58.616Z,62.10
2019-01-02T19:42:30.834Z,62.40
2019-01-02T19:45:03.146Z,62.20
2019-01-02T19:47:35.370Z,62.80
2019-01-02T19:50:08.913Z,63.10
2019-01-02T19:52:41.235Z,63.20
2019-01-02T19:55:13.692Z,63.00
2019-01-02T19:57:45.901Z,63.30
2019-01-02T20:00:18.212Z,63.00
2019-01-02T20:02:50.433Z,63.20
2019-01-02T20:05:22.949Z,62.40
2019-01-02T20:07:55.168Z,63.40
2019-01-02T20:10:27.480Z,62.80
2019-01-02T20:12:59.713Z,63.50
2019-01-02T20:15:31.920Z,63.30
2019-01-02T20:18:04.340Z,62.60
2019-01-02T20:20:36.544Z,62.20
2019-01-02T20:23:08.764Z,62.70
2019-01-02T20:25:40.972Z,62.50
2019-01-02T20:28:13.294Z,62.70
2019-01-02T20:30:45.514Z,62.40
2019-01-02T20:33:17.738Z,62.20
2019-01-02T20:35:49.942Z,62.80
2019-01-02T20:38:22.255Z,63.70
2019-01-02T20:40:54.641Z,64.10
2019-01-02T20:43:27.000Z,63.90
2019-01-02T20:45:59.304Z,63.20
2019-01-02T20:48:31.524Z,62.70
2019-01-02T20:51:03.751Z,63.40
2019-01-02T20:53:35.956Z,62.80
2019-01-02T20:56:08.410Z,63.00
2019-01-02T20:58:40.870Z,63.00
2019-01-02T21:01:13.130Z,63.40
2019-01-02T21:03:45.346Z,63.90
2019-01-02T21:06:17.554Z,63.70
2019-01-02T21:08:49.880Z,63.20
2019-01-02T21:11:22.179Z,63.60
2019-01-02T21:13:54.400Z,62.80
2019-01-02T21:16:26.809Z,62.20
2019-01-02T21:18:59.025Z,62.00
2019-01-02T21:21:31.335Z,61.70
2019-01-02T21:24:03.650Z,62.20
2019-01-02T21:26:35.860Z,62.20
2019-01-02T21:29:08.072Z,61.90
2019-01-02T21:31:40.388Z,62.90
2019-01-02T21:34:12.604Z,61.80
2019-01-02T21:36:44.912Z,62.70
2019-01-02T21:39:17.133Z,62.10
2019-01-02T21:41:49.349Z,61.10
2019-01-02T21:44:21.563Z,61.50
2019-01-02T21:46:54.899Z,61.70
2019-01-02T21:49:27.115Z,62.20
2019-01-02T21:51:59.321Z,62.80
2019-01-02T21:54:31.544Z,62.90
2019-01-02T21:57:04.059Z,61.70
2019-01-02T21:59:36.259Z,61.40
2019-01-02T22:02:08.777Z,62.10
2019-01-02T22:04:41.018Z,61.70
2019-01-02T22:07:13.324Z,62.50
2019-01-02T22:09:45.546Z,62.60
2019-01-02T22:12:17.863Z,62.30
2019-01-02T22:14:50.180Z,62.20
2019-01-02T22:17:22.386Z,62.50
2019-01-02T22:19:54.694Z,62.30
2019-01-02T22:22:27.003Z,61.70
2019-01-02T22:24:59.216Z,61.90
2019-01-02T22:27:31.428Z,62.00
2019-01-02T22:30:03.640Z,62.50
2019-01-02T22:32:35.848Z,62.30
2019-01-02T22:35:08.576Z,62.40
2019-01-02T22:37:40.780Z,62.70
2019-01-02T22:40:13.197Z,62.80
2019-01-02T22:42:45.405Z,62.50
2019-01-02T22:45:17.618Z,63.10
2019-01-02T22:47:50.024Z,62.80
2019-01-02T22:50:22.334Z,61.40
2019-01-02T22:52:54.547Z,62.30
2019-01-02T22:55:26.809Z,62.30
2019-01-02T22:57:59.010Z,62.30
2019-01-02T23:00:48.559Z,61.90
2019-01-02T23:03:45.573Z,62.50
2019-01-02T23:06:35.088Z,61.60
2019-01-02T23:09:18.388Z,62.00
2019-01-02T23:12:27.361Z,62.00
2019-01-02T23:15:27.373Z,62.40
2019-01-02T23:18:21.154Z,62.00
2019-01-02T23:21:21.093Z,61.80
2019-01-02T23:24:10.715Z,61.90
2019-01-02T23:27:19.869Z,61.70
2019-01-02T23:30:10.854Z,61.30
2019-01-02T23:33:01.861Z,62.40
2019-01-02T23:35:59.569Z,62.20
2019-01-02T23:38:54.951Z,62.40
2019-01-02T23:41:45.953Z,62.50
2019-01-02T23:44:43.079Z,62.10
2019-01-02T23:47:52.063Z,62.30
2019-01-02T23:50:41.814Z,62.10
2019-01-02T23:53:35.811Z,62.60
2019-01-02T23:56:25.591Z,62.60
2019-01-02T23:59:12.759Z,62.70
